Mulberry, Arkansas
Current Conditions -  °F | °C
As of 3:53 AM on Friday 26 Dec 2014 (Local Time) from KFSM Reporting Station
Broken Clouds Broken Clouds  
Wind Chill: 39°   Ceiling: 4400
Heat Index: 39°   Visibility: 10mi
Dew Point: 33°   Wind: 0mph
Humidity: 79%   Direction: NA
Pressure: 30.01"   Gusts: NA
Location:  35.5°N, 94.05°W
Report Text: KFSM 260953Z AUTO 00000KT 10SM BKN044 04/01 A3001 RMK AO2 SLP164 T00390006
Loading
Personal Weather Stations






























Interactive Weather Map New forecast layout! Learn more

10-Day Weather Forecast

Advertisements
Track Severe Weather on mobile